Time;durP1;ratioP1;P1;durP2;ratioP2;P2;SDS_P1;SDS_P2;PMS_P1;PMS_P2;Temp;Humidity;BMP_temperature;BMP_pressure;BME280_temperature;BME280_humidity;BME280_pressure;Samples;Min_cycle;Max_cycle;Signal;HPM_P1;HPM_P2
2022/05/16 00:01:53;;;;;;;11.75;5.68;;;12.10;99.90;;;;;;4937366;29;20039;-85
2022/05/16 00:04:20;;;;;;;12.13;5.97;;;12.00;99.90;;;;;;4938611;29;20028;-86
2022/05/16 00:06:46;;;;;;;10.10;6.32;;;12.00;99.90;;;;;;4962349;28;20032;-86
2022/05/16 00:09:11;;;;;;;9.93;6.47;;;11.90;99.90;;;;;;4941760;29;20032;-85
2022/05/16 00:11:37;;;;;;;9.73;5.63;;;11.90;99.90;;;;;;4944601;29;20032;-85
2022/05/16 00:14:03;;;;;;;11.73;6.80;;;11.80;99.90;;;;;;4940467;29;20105;-87
2022/05/16 00:16:29;;;;;;;8.80;6.18;;;11.80;99.90;;;;;;4942116;28;20036;-85
2022/05/16 00:18:54;;;;;;;10.13;5.93;;;11.70;99.90;;;;;;4937238;29;20024;-86
2022/05/16 00:21:20;;;;;;;9.63;5.88;;;11.70;99.90;;;;;;4932388;29;20035;-86
2022/05/16 00:23:46;;;;;;;8.85;6.10;;;11.60;99.90;;;;;;4938863;29;20520;-85
2022/05/16 00:26:11;;;;;;;11.07;6.13;;;11.60;99.90;;;;;;4941792;28;20504;-85
2022/05/16 00:28:37;;;;;;;13.25;6.40;;;11.50;99.90;;;;;;4923393;28;20605;-86
2022/05/16 00:31:04;;;;;;;8.00;6.75;;;11.50;99.90;;;;;;4935573;29;20038;-85
2022/05/16 00:33:30;;;;;;;10.57;6.57;;;11.50;99.90;;;;;;4924739;29;20032;-86
2022/05/16 00:35:56;;;;;;;10.35;6.68;;;11.40;99.90;;;;;;4934269;29;20043;-85
2022/05/16 00:38:21;;;;;;;9.85;6.50;;;11.40;99.90;;;;;;4930289;28;20424;-85
2022/05/16 00:40:47;;;;;;;11.02;6.82;;;11.30;99.90;;;;;;4934538;29;20032;-86
2022/05/16 00:43:13;;;;;;;10.60;6.88;;;11.30;99.90;;;;;;4930586;29;20032;-85
2022/05/16 00:45:40;;;;;;;9.05;6.13;;;11.20;99.90;;;;;;4936767;29;20083;-85
2022/05/16 00:48:07;;;;;;;8.40;5.63;;;11.20;99.90;;;;;;4934645;29;20122;-86
2022/05/16 00:50:39;;;;;;;10.80;6.40;;;11.10;99.90;;;;;;4928785;29;20781;-85
2022/05/16 00:53:05;;;;;;;12.25;6.80;;;11.10;99.90;;;;;;4934852;29;20063;-86
2022/05/16 00:55:34;;;;;;;12.27;6.95;;;11.00;99.90;;;;;;4934782;29;20047;-87
2022/05/16 00:58:08;;;;;;;16.33;7.18;;;11.00;99.90;;;;;;4927820;29;20067;-86
2022/05/16 01:00:36;;;;;;;13.00;7.22;;;11.00;99.90;;;;;;4933369;29;20038;-86
2022/05/16 01:05:54;;;;;;;22.25;6.75;;;10.90;99.90;;;;;;4927060;29;20055;-85
2022/05/16 01:08:24;;;;;;;9.75;6.60;;;10.80;99.90;;;;;;4932862;29;20027;-86
2022/05/16 01:10:56;;;;;;;17.08;7.25;;;10.80;99.90;;;;;;4934647;29;20028;-86
2022/05/16 01:13:27;;;;;;;10.57;7.68;;;10.70;99.90;;;;;;4934288;28;20185;-86
2022/05/16 01:15:53;;;;;;;11.30;8.10;;;10.70;99.90;;;;;;4929040;29;20143;-85
2022/05/16 01:18:22;;;;;;;8.77;7.03;;;10.60;99.90;;;;;;4928450;29;20083;-86
2022/05/16 01:21:09;;;;;;;8.82;7.18;;;10.70;99.90;;;;;;4930990;29;20023;-86
2022/05/16 01:23:51;;;;;;;11.23;7.40;;;10.60;99.90;;;;;;4930704;29;20027;-85
2022/05/16 01:26:21;;;;;;;12.60;7.20;;;10.60;99.90;;;;;;4931998;29;20135;-85
2022/05/16 01:28:47;;;;;;;14.63;6.78;;;10.50;99.90;;;;;;4931967;29;20485;-85
2022/05/16 01:31:13;;;;;;;8.60;7.72;;;10.50;99.90;;;;;;4933783;29;20559;-85
2022/05/16 01:33:39;;;;;;;13.68;7.10;;;10.50;99.90;;;;;;4924294;29;20047;-85
2022/05/16 01:36:05;;;;;;;8.18;7.15;;;10.40;99.90;;;;;;4938854;28;20689;-85
2022/05/16 01:38:32;;;;;;;12.13;6.82;;;10.40;99.90;;;;;;4931022;29;20063;-85
2022/05/16 01:41:00;;;;;;;11.02;7.65;;;10.30;99.90;;;;;;4930716;29;20027;-85
2022/05/16 01:43:38;;;;;;;12.05;8.20;;;10.30;99.90;;;;;;4931643;28;20503;-85
2022/05/16 01:46:06;;;;;;;10.68;7.63;;;10.20;99.90;;;;;;4931365;29;20503;-85
2022/05/16 01:48:31;;;;;;;10.75;6.70;;;10.20;99.90;;;;;;4929446;29;20140;-85
2022/05/16 01:51:00;;;;;;;12.63;6.88;;;10.20;99.90;;;;;;4928260;28;20063;-85
2022/05/16 01:53:27;;;;;;;14.25;8.02;;;10.10;99.90;;;;;;4928540;29;20036;-85
2022/05/16 01:55:52;;;;;;;12.95;7.65;;;10.10;99.90;;;;;;4930341;28;20047;-85
2022/05/16 01:58:18;;;;;;;12.18;7.40;;;10.10;99.90;;;;;;4931501;29;20705;-85
2022/05/16 02:00:43;;;;;;;10.80;8.00;;;10.10;99.90;;;;;;4929156;29;20511;-85
2022/05/16 02:03:10;;;;;;;12.27;8.23;;;10.10;99.90;;;;;;4931332;29;20118;-87
2022/05/16 02:05:36;;;;;;;17.70;8.32;;;10.10;99.90;;;;;;4925845;29;20067;-85
2022/05/16 02:08:02;;;;;;;11.43;8.48;;;10.10;99.90;;;;;;4930609;29;20032;-85
2022/05/16 02:10:29;;;;;;;9.23;7.82;;;10.10;99.90;;;;;;4931939;29;20024;-85
2022/05/16 02:12:57;;;;;;;11.68;7.57;;;10.10;99.90;;;;;;4933014;29;20036;-85
2022/05/16 02:15:25;;;;;;;15.00;8.25;;;10.20;99.90;;;;;;4929433;28;20028;-85
2022/05/16 02:17:51;;;;;;;11.38;8.70;;;10.20;99.90;;;;;;4928727;29;20032;-86
2022/05/16 02:20:18;;;;;;;14.68;8.77;;;10.20;99.90;;;;;;4931144;29;20119;-85
2022/05/16 02:25:31;;;;;;;13.23;7.93;;;10.20;99.90;;;;;;4928628;28;20039;-85
2022/05/16 02:27:56;;;;;;;14.70;7.75;;;10.20;99.90;;;;;;4930028;29;20051;-85
2022/05/16 02:30:22;;;;;;;12.05;7.25;;;10.20;99.90;;;;;;4930165;29;20066;-85
2022/05/16 02:32:48;;;;;;;11.73;8.35;;;10.20;99.90;;;;;;4932332;29;20051;-83
2022/05/16 02:35:15;;;;;;;10.63;8.10;;;10.20;99.90;;;;;;4929336;29;20032;-83
2022/05/16 02:37:41;;;;;;;11.65;7.78;;;10.10;99.90;;;;;;4928061;29;20767;-84
2022/05/16 02:40:09;;;;;;;8.07;7.22;;;10.00;99.90;;;;;;4930953;29;20028;-87
2022/05/16 02:42:35;;;;;;;9.68;8.05;;;10.00;99.90;;;;;;4929285;29;20101;-85
2022/05/16 02:45:01;;;;;;;13.05;8.30;;;9.90;99.90;;;;;;4930491;29;20015;-85
2022/05/16 02:47:26;;;;;;;12.57;7.22;;;9.80;99.90;;;;;;4937858;28;20741;-85
2022/05/16 02:49:52;;;;;;;9.60;6.32;;;9.80;99.90;;;;;;4930770;29;20523;-84
2022/05/16 02:52:18;;;;;;;10.65;6.85;;;9.70;99.90;;;;;;4932004;28;20087;-86
2022/05/16 02:54:44;;;;;;;11.45;7.70;;;9.60;99.90;;;;;;4934464;28;20556;-86
2022/05/16 02:57:10;;;;;;;10.25;7.53;;;9.60;99.90;;;;;;4942406;29;20029;-86
2022/05/16 02:59:37;;;;;;;9.80;8.00;;;9.50;99.90;;;;;;4927767;29;20031;-86
2022/05/16 03:02:05;;;;;;;11.40;7.70;;;9.40;99.90;;;;;;4934849;28;20084;-86
2022/05/16 03:04:31;;;;;;;10.73;7.32;;;9.40;99.90;;;;;;4942343;29;20024;-86
2022/05/16 03:06:58;;;;;;;10.57;7.55;;;9.30;99.90;;;;;;4933589;29;20024;-85
2022/05/16 03:09:25;;;;;;;10.68;8.90;;;9.30;99.90;;;;;;4931618;29;20034;-86
2022/05/16 03:11:52;;;;;;;11.05;8.30;;;9.20;99.90;;;;;;4930638;29;20507;-86
2022/05/16 03:14:18;;;;;;;10.02;7.85;;;9.20;99.90;;;;;;4931583;29;20034;-85
2022/05/16 03:16:43;;;;;;;13.68;8.43;;;9.20;99.90;;;;;;4946156;28;20036;-88
2022/05/16 03:19:09;;;;;;;10.18;8.70;;;9.20;99.90;;;;;;4935014;29;20115;-87
2022/05/16 03:21:35;;;;;;;20.80;9.23;;;9.10;99.90;;;;;;4928245;29;20035;-85
2022/05/16 03:24:00;;;;;;;12.57;10.32;;;9.10;99.90;;;;;;4939997;28;20110;-85
2022/05/16 03:26:26;;;;;;;16.60;9.57;;;9.20;99.90;;;;;;4933428;29;20048;-86
2022/05/16 03:28:52;;;;;;;16.52;9.45;;;9.20;99.90;;;;;;4942697;29;20131;-85
2022/05/16 03:31:19;;;;;;;11.93;10.60;;;9.20;99.90;;;;;;4933269;28;20419;-86
2022/05/16 03:33:44;;;;;;;17.27;11.57;;;9.20;99.90;;;;;;4933226;29;20050;-85
2022/05/16 03:36:10;;;;;;;12.35;10.63;;;9.30;99.90;;;;;;4947768;28;20504;-86
2022/05/16 03:41:21;;;;;;;15.38;10.43;;;9.50;99.90;;;;;;4937495;29;20546;-86
2022/05/16 03:43:46;;;;;;;11.93;9.25;;;9.50;99.90;;;;;;4938380;28;20028;-86
2022/05/16 03:46:13;;;;;;;13.73;10.13;;;9.50;99.90;;;;;;4933880;29;20024;-87
2022/05/16 03:48:38;;;;;;;12.98;8.98;;;9.60;99.90;;;;;;4933065;29;20039;-86
2022/05/16 03:51:07;;;;;;;15.48;9.25;;;9.50;99.90;;;;;;4927491;28;20020;-86
2022/05/16 03:53:45;;;;;;;22.20;9.40;;;9.50;99.90;;;;;;4926966;28;20115;-84
2022/05/16 03:56:13;;;;;;;9.95;8.75;;;9.50;99.90;;;;;;4936998;29;20055;-85
2022/05/16 03:58:38;;;;;;;14.68;8.65;;;9.50;99.90;;;;;;4936942;29;20122;-85
2022/05/16 04:01:04;;;;;;;13.65;9.38;;;9.50;99.90;;;;;;4933867;29;20112;-86
2022/05/16 04:03:30;;;;;;;16.58;8.93;;;9.50;99.90;;;;;;4927168;29;20111;-86
2022/05/16 04:05:56;;;;;;;11.93;8.98;;;9.50;99.90;;;;;;4931551;29;20024;-87
2022/05/16 04:08:22;;;;;;;11.85;8.77;;;9.50;99.90;;;;;;4934901;29;20028;-85
2022/05/16 04:10:47;;;;;;;14.13;8.10;;;9.50;99.90;;;;;;4932158;28;20028;-86
2022/05/16 04:13:13;;;;;;;10.77;8.32;;;9.50;99.90;;;;;;4933238;29;20063;-86
2022/05/16 04:15:39;;;;;;;9.65;8.52;;;9.50;99.90;;;;;;4935913;28;20040;-86
2022/05/16 04:18:04;;;;;;;11.48;8.18;;;9.50;99.90;;;;;;4929281;29;20031;-86
2022/05/16 04:20:30;;;;;;;13.32;8.35;;;9.50;99.90;;;;;;4931453;29;20039;-85
2022/05/16 04:22:56;;;;;;;9.70;8.80;;;9.50;99.90;;;;;;4935222;29;20082;-86
2022/05/16 04:25:21;;;;;;;14.63;8.73;;;9.50;99.90;;;;;;4933440;28;20070;-87
2022/05/16 04:27:47;;;;;;;10.38;9.18;;;9.50;99.90;;;;;;4932991;29;20461;-84
2022/05/16 04:30:13;;;;;;;17.17;10.18;;;9.50;99.90;;;;;;4935206;29;20059;-86
2022/05/16 04:32:39;;;;;;;13.30;10.07;;;9.50;99.90;;;;;;4932228;29;20039;-85
2022/05/16 04:35:06;;;;;;;13.50;9.95;;;9.60;99.90;;;;;;4934310;29;20040;-86
2022/05/16 04:37:32;;;;;;;10.75;9.68;;;9.60;99.90;;;;;;4928903;29;20066;-85
2022/05/16 04:39:59;;;;;;;12.48;10.73;;;9.60;99.90;;;;;;4936036;29;20059;-86
2022/05/16 04:42:40;;;;;;;10.95;9.63;;;9.70;99.90;;;;;;4945315;29;20024;-86
2022/05/16 04:45:24;;;;;;;13.55;9.88;;;9.70;99.90;;;;;;4935806;29;20539;-86
2022/05/16 04:47:55;;;;;;;12.30;9.48;;;9.80;99.90;;;;;;4925368;29;20043;-86
2022/05/16 04:50:26;;;;;;;;;;;9.90;99.90;;;;;;4933361;29;20044;-85
2022/05/16 04:52:51;;;;;;;10.45;8.13;;;10.10;99.90;;;;;;4934986;29;19917;-85
2022/05/16 04:55:18;;;;;;;9.63;8.27;;;10.30;99.90;;;;;;4931153;29;20028;-86
2022/05/16 04:57:44;;;;;;;10.93;7.30;;;10.40;99.90;;;;;;4930954;28;20032;-85
2022/05/16 05:00:11;;;;;;;11.50;7.03;;;10.70;99.90;;;;;;4939852;28;20539;-86
2022/05/16 05:02:38;;;;;;;11.27;7.05;;;11.30;99.90;;;;;;4931641;29;20028;-86
2022/05/16 05:05:04;;;;;;;8.50;5.70;;;12.20;99.90;;;;;;4932839;29;20035;-86
2022/05/16 05:07:30;;;;;;;9.90;5.88;;;13.50;99.90;;;;;;4930401;29;20031;-86
2022/05/16 05:15:25;;;;;;;6.28;4.05;;;17.00;99.90;;;;;;4929799;29;20510;-86
2022/05/16 05:17:50;;;;;;;5.93;4.40;;;18.20;99.90;;;;;;4944538;28;20028;-86
2022/05/16 05:20:17;;;;;;;7.25;4.57;;;18.90;99.90;;;;;;4927333;29;20071;-87
2022/05/16 05:22:46;;;;;;;6.38;4.00;;;19.80;97.90;;;;;;4924096;28;20449;-86
2022/05/16 05:25:18;;;;;;;5.30;3.55;;;20.90;91.80;;;;;;4934210;29;20035;-87
2022/05/16 05:27:45;;;;;;;5.32;3.83;;;21.60;84.10;;;;;;4930733;28;20044;-86
2022/05/16 05:30:14;;;;;;;6.80;4.30;;;22.50;75.10;;;;;;4932955;29;20047;-86
2022/05/16 05:32:42;;;;;;;6.90;4.45;;;22.60;71.90;;;;;;4930951;29;20036;-86
2022/05/16 05:35:08;;;;;;;4.35;3.67;;;22.60;71.50;;;;;;4934912;29;20032;-87
2022/05/16 05:37:35;;;;;;;5.80;4.20;;;22.20;71.60;;;;;;4932682;29;20038;-87
2022/05/16 05:40:01;;;;;;;9.38;4.55;;;21.50;72.20;;;;;;4942581;28;20504;-86
2022/05/16 05:42:28;;;;;;;5.53;3.80;;;21.10;75.60;;;;;;4929137;28;20035;-86
2022/05/16 05:44:53;;;;;;;6.65;4.40;;;20.90;79.40;;;;;;4945151;29;20043;-86
2022/05/16 05:47:20;;;;;;;9.45;4.78;;;21.20;86.70;;;;;;4928175;29;20412;-86
2022/05/16 05:49:46;;;;;;;8.18;4.55;;;21.80;76.60;;;;;;4931077;29;20404;-85
2022/05/16 05:52:12;;;;;;;9.32;4.30;;;22.60;74.40;;;;;;4931908;28;20024;-86
2022/05/16 05:54:37;;;;;;;7.65;3.70;;;23.40;71.40;;;;;;4930174;29;20396;-86
2022/05/16 05:57:06;;;;;;;6.50;3.60;;;24.60;63.20;;;;;;4924828;29;20030;-87
2022/05/16 05:59:31;;;;;;;7.00;3.58;;;25.80;61.00;;;;;;4933493;29;20039;-86
2022/05/16 06:02:00;;;;;;;5.95;3.78;;;25.50;58.60;;;;;;4936674;28;20131;-87
2022/05/16 06:04:26;;;;;;;5.65;3.60;;;26.00;58.00;;;;;;4929330;29;20032;-86
2022/05/16 06:06:52;;;;;;;6.68;3.83;;;25.50;59.20;;;;;;4933324;29;20034;-87
2022/05/16 06:09:17;;;;;;;6.60;4.13;;;25.40;59.80;;;;;;4930375;29;20106;-86
2022/05/16 06:11:43;;;;;;;3.78;3.20;;;25.60;57.60;;;;;;4925579;29;20032;-85
2022/05/16 06:14:08;;;;;;;6.07;3.45;;;25.80;57.20;;;;;;4926216;28;20031;-86
2022/05/16 06:16:34;;;;;;;4.65;2.92;;;26.10;58.40;;;;;;4927517;29;20032;-86
2022/05/16 06:19:00;;;;;;;3.85;3.00;;;27.00;58.50;;;;;;4933003;29;20043;-86
2022/05/16 06:21:26;;;;;;;4.07;3.25;;;28.30;55.20;;;;;;4933596;29;20032;-87
2022/05/16 06:23:52;;;;;;;7.15;3.30;;;29.50;54.40;;;;;;4927983;29;20026;-87
2022/05/16 06:26:17;;;;;;;9.48;2.83;;;30.40;51.70;;;;;;4935710;28;20032;-86
2022/05/16 06:28:44;;;;;;;5.03;2.95;;;30.00;50.10;;;;;;4935053;28;20205;-87
2022/05/16 06:31:10;;;;;;;5.45;2.95;;;30.60;48.70;;;;;;4940405;28;20035;-87
2022/05/16 06:33:36;;;;;;;6.05;2.58;;;30.20;48.90;;;;;;4933427;29;20042;-86
2022/05/16 06:36:03;;;;;;;7.85;2.63;;;29.50;48.00;;;;;;4934372;29;20102;-85
2022/05/16 06:38:31;;;;;;;6.60;3.08;;;28.50;50.20;;;;;;4947027;28;20126;-85
2022/05/16 06:40:58;;;;;;;6.53;3.13;;;27.60;52.50;;;;;;4932521;29;20159;-86
2022/05/16 06:43:25;;;;;;;4.15;2.72;;;27.00;52.10;;;;;;4923141;29;20024;-86
2022/05/16 06:45:51;;;;;;;4.85;2.55;;;26.50;56.00;;;;;;4933532;29;20024;-86
2022/05/16 06:48:17;;;;;;;5.22;2.30;;;26.30;53.80;;;;;;4930827;29;20436;-87
2022/05/16 06:50:45;;;;;;;4.38;2.63;;;25.40;55.70;;;;;;4916403;29;20410;-86
2022/05/16 06:53:17;;;;;;;7.80;2.60;;;25.20;56.30;;;;;;4932594;29;20038;-86
2022/05/16 06:55:44;;;;;;;3.55;2.58;;;25.00;56.00;;;;;;4926969;29;20028;-86
2022/05/16 06:58:10;;;;;;;7.03;3.30;;;24.70;57.90;;;;;;4926237;29;20050;-86
2022/05/16 07:00:36;;;;;;;5.65;2.92;;;24.40;57.30;;;;;;4936241;28;20027;-87
2022/05/16 07:03:01;;;;;;;7.53;3.40;;;24.20;58.70;;;;;;4933199;29;20032;-87
2022/05/16 07:05:27;;;;;;;5.43;3.03;;;24.00;58.40;;;;;;4930003;29;20039;-87
2022/05/16 07:07:53;;;;;;;7.15;2.85;;;23.70;58.50;;;;;;4926765;29;20036;-85
2022/05/16 07:10:18;;;;;;;6.22;3.00;;;23.50;60.50;;;;;;4932560;29;20032;-86
2022/05/16 07:12:44;;;;;;;6.25;2.97;;;23.30;62.10;;;;;;4928970;28;20032;-86
2022/05/16 07:15:10;;;;;;;7.70;3.60;;;23.10;62.10;;;;;;4932814;29;20024;-85
2022/05/16 07:17:36;;;;;;;7.13;3.35;;;22.80;63.90;;;;;;4927636;29;20107;-86
2022/05/16 07:20:02;;;;;;;12.73;3.22;;;22.80;65.20;;;;;;4932921;29;20120;-86
2022/05/16 07:22:28;;;;;;;8.02;3.00;;;22.70;64.30;;;;;;4928202;29;20044;-87
2022/05/16 07:24:55;;;;;;;3.85;2.58;;;22.50;65.50;;;;;;4930794;29;20034;-86
2022/05/16 07:30:08;;;;;;;5.93;2.70;;;22.10;66.70;;;;;;4932789;29;20576;-87
2022/05/16 07:32:44;;;;;;;9.13;2.90;;;22.10;65.10;;;;;;4927472;29;20120;-85
2022/05/16 07:35:17;;;;;;;4.05;2.35;;;22.20;69.00;;;;;;4929207;29;20032;-86
2022/05/16 07:37:44;;;;;;;7.28;2.25;;;22.20;65.90;;;;;;4924424;29;20044;-86
2022/05/16 07:40:11;;;;;;;4.30;2.30;;;22.30;65.90;;;;;;4925189;28;20103;-86
2022/05/16 07:42:37;;;;;;;4.60;2.80;;;22.60;64.80;;;;;;4933280;29;20163;-87
2022/05/16 07:45:06;;;;;;;5.93;2.92;;;23.00;63.60;;;;;;4941401;29;20079;-86
2022/05/16 07:47:32;;;;;;;11.45;2.90;;;23.40;64.30;;;;;;4927916;29;20434;-87
2022/05/16 07:49:59;;;;;;;5.60;3.13;;;23.80;62.10;;;;;;4933716;29;20024;-87
2022/05/16 07:52:26;;;;;;;7.05;3.17;;;24.10;61.30;;;;;;4935198;29;20059;-86
2022/05/16 07:54:52;;;;;;;4.63;2.60;;;24.80;61.40;;;;;;4932210;29;20068;-87
2022/05/16 07:57:18;;;;;;;12.82;3.33;;;25.90;57.50;;;;;;4933523;29;20052;-87
2022/05/16 07:59:45;;;;;;;5.80;2.67;;;26.50;56.40;;;;;;4930115;29;20501;-87
2022/05/16 08:02:12;;;;;;;5.38;2.45;;;27.10;54.70;;;;;;4933681;28;20052;-87
2022/05/16 08:04:38;;;;;;;7.93;2.50;;;27.80;52.00;;;;;;4941664;29;20423;-90
2022/05/16 08:07:04;;;;;;;5.07;2.72;;;27.30;50.70;;;;;;4924643;29;20103;-86
2022/05/16 08:12:44;;;;;;;11.07;2.35;;;26.70;53.00;;;;;;4927598;29;20079;-91
2022/05/16 08:15:10;;;;;;;4.18;2.42;;;26.20;54.80;;;;;;4941437;29;20048;-88
2022/05/16 08:17:36;;;;;;;4.95;2.50;;;26.40;55.60;;;;;;4931395;29;20040;-88
2022/05/16 08:20:05;;;;;;;4.53;2.30;;;26.70;53.50;;;;;;4941996;28;20087;-87
2022/05/16 08:22:32;;;;;;;6.07;2.53;;;26.90;53.50;;;;;;4943522;29;20023;-89
2022/05/16 08:24:58;;;;;;;6.60;2.58;;;27.80;54.80;;;;;;4960430;28;20682;-89
2022/05/16 08:27:25;;;;;;;5.20;2.10;;;28.30;50.40;;;;;;4967243;28;20034;-90
2022/05/16 08:29:51;;;;;;;5.97;2.15;;;28.10;50.60;;;;;;4955228;29;20020;-91
2022/05/16 08:32:20;;;;;;;4.53;1.90;;;27.30;50.80;;;;;;4952994;28;20052;-92
2022/05/16 08:34:46;;;;;;;8.73;2.75;;;26.70;51.80;;;;;;4951883;28;20032;-90
2022/05/16 08:40:01;;;;;;;3.92;2.53;;;25.60;54.90;;;;;;4955497;28;20042;-90
2022/05/16 08:42:43;;;;;;;5.68;2.25;;;25.30;58.30;;;;;;4969325;28;20031;-90
2022/05/16 08:45:27;;;;;;;4.80;2.22;;;25.80;57.80;;;;;;4956385;28;20023;-90
2022/05/16 08:47:54;;;;;;;9.93;2.70;;;26.10;57.10;;;;;;4956216;28;20436;-91
2022/05/16 08:50:28;;;;;;;5.00;2.33;;;26.10;57.50;;;;;;4964317;28;20024;-91
2022/05/16 08:53:02;;;;;;;4.90;2.17;;;26.10;55.40;;;;;;4945634;28;20079;-90
2022/05/16 08:55:36;;;;;;;3.92;2.25;;;26.40;57.70;;;;;;4955461;28;20054;-90
2022/05/16 08:58:50;;;;;;;3.45;2.40;;;26.10;56.30;;;;;;4954014;28;20031;-90
2022/05/16 09:01:32;;;;;;;5.50;2.85;;;25.90;57.50;;;;;;4957499;28;20031;-90
2022/05/16 09:04:17;;;;;;;8.55;2.92;;;25.80;57.50;;;;;;4950693;29;20083;-90
2022/05/16 09:06:58;;;;;;;4.63;2.70;;;25.40;57.40;;;;;;4964272;28;20035;-90
2022/05/16 09:09:37;;;;;;;3.90;2.10;;;25.30;58.60;;;;;;4960893;28;20046;-90
2022/05/16 09:12:08;;;;;;;3.72;2.65;;;25.30;58.50;;;;;;4969105;28;20027;-89
2022/05/16 09:14:59;;;;;;;5.57;2.58;;;25.30;58.60;;;;;;4953923;28;20028;-91
2022/05/16 09:17:31;;;;;;;5.35;2.60;;;25.80;60.10;;;;;;4960860;28;20031;-90
2022/05/16 09:20:16;;;;;;;9.13;3.05;;;26.10;58.80;;;;;;4962138;28;20583;-90
2022/05/16 09:22:50;;;;;;;6.63;2.55;;;26.20;57.40;;;;;;4954749;28;20031;-89
2022/05/16 09:25:20;;;;;;;6.13;2.40;;;26.50;57.80;;;;;;4955842;28;20391;-90
2022/05/16 09:30:36;;;;;;;2.92;2.22;;;26.00;58.10;;;;;;4954331;28;20534;-90
2022/05/16 09:33:28;;;;;;;4.72;2.38;;;25.90;58.50;;;;;;4952774;29;20031;-90
2022/05/16 09:36:08;;;;;;;4.43;2.55;;;25.80;58.00;;;;;;4961548;28;20035;-90
2022/05/16 09:38:34;;;;;;;4.03;2.22;;;26.30;59.50;;;;;;4968436;28;20093;-91
2022/05/16 09:40:59;;;;;;;4.43;2.88;;;27.20;57.30;;;;;;4951830;28;20130;-91
2022/05/16 09:43:30;;;;;;;8.70;2.47;;;27.80;54.60;;;;;;4942626;29;20019;-91
2022/05/16 09:46:25;;;;;;;5.93;2.33;;;28.60;54.70;;;;;;4951532;28;20027;-91
2022/05/16 09:49:04;;;;;;;6.35;2.28;;;29.30;53.70;;;;;;4940691;28;20023;-91
2022/05/16 09:51:37;;;;;;;5.33;2.33;;;29.10;52.60;;;;;;4961210;28;20027;-91
2022/05/16 09:54:25;;;;;;;9.82;2.38;;;29.10;53.60;;;;;;4955902;28;20035;-90
2022/05/16 09:56:55;;;;;;;2.67;1.40;;;29.80;54.00;;;;;;4941268;28;20459;-91
2022/05/16 09:59:45;;;;;;;2.83;1.45;;;30.90;50.20;;;;;;4950816;29;20036;-91
2022/05/16 10:02:27;;;;;;;5.47;2.08;;;30.70;45.90;;;;;;4953866;28;20495;-90
2022/05/16 10:05:20;;;;;;;3.63;1.63;;;30.60;48.10;;;;;;4951939;29;20052;-90
2022/05/16 10:07:48;;;;;;;4.07;1.40;;;30.90;49.20;;;;;;4956220;28;20118;-88
2022/05/16 10:10:21;;;;;;;2.60;1.65;;;31.10;48.10;;;;;;4952703;28;20035;-90
2022/05/16 10:12:49;;;;;;;7.40;1.67;;;31.20;48.50;;;;;;4953424;29;20110;-89
2022/05/16 10:15:15;;;;;;;3.92;1.30;;;30.70;45.90;;;;;;4956303;28;20024;-90
2022/05/16 10:17:43;;;;;;;4.32;1.60;;;30.50;47.20;;;;;;4950853;29;20036;-90
2022/05/16 10:20:45;;;;;;;4.78;1.48;;;30.10;47.00;;;;;;4947116;29;20529;-90
2022/05/16 10:23:29;;;;;;;7.32;1.50;;;29.50;48.20;;;;;;4949026;28;20028;-91
2022/05/16 10:25:59;;;;;;;10.02;2.63;;;29.00;51.50;;;;;;4951443;28;20119;-88
2022/05/16 10:28:30;;;;;;;5.95;1.70;;;28.30;63.70;;;;;;4951636;28;20085;-90
2022/05/16 10:33:45;;;;;;;4.30;2.30;;;26.70;71.10;;;;;;4945041;28;20086;-91
2022/05/16 10:36:23;;;;;;;6.22;3.03;;;26.00;75.30;;;;;;4949357;29;20035;-91
2022/05/16 10:38:54;;;;;;;5.80;2.85;;;25.40;83.60;;;;;;4946821;29;20047;-91
2022/05/16 10:41:32;;;;;;;4.95;3.20;;;24.80;85.60;;;;;;4950840;28;20078;-91
2022/05/16 10:44:08;;;;;;;7.85;3.20;;;24.40;89.10;;;;;;4961058;28;20028;-90
2022/05/16 10:46:38;;;;;;;4.03;2.58;;;24.00;90.90;;;;;;4951244;28;20083;-91
2022/05/16 10:49:16;;;;;;;3.40;1.90;;;23.60;92.50;;;;;;4955319;28;20050;-90
2022/05/16 10:51:55;;;;;;;7.50;3.45;;;23.40;96.50;;;;;;4950791;29;20252;-90
2022/05/16 10:54:27;;;;;;;7.57;2.90;;;23.30;95.80;;;;;;4953502;28;20081;-91
2022/05/16 10:57:04;;;;;;;7.40;3.17;;;23.20;97.10;;;;;;4954342;28;20027;-91
2022/05/16 10:59:53;;;;;;;6.90;3.22;;;23.20;97.50;;;;;;4968989;28;20063;-91
2022/05/16 11:02:34;;;;;;;3.92;3.00;;;23.10;99.90;;;;;;4962675;28;20031;-91
2022/05/16 11:05:11;;;;;;;4.55;4.07;;;23.40;99.60;;;;;;4953704;29;20107;-90
2022/05/16 11:08:03;;;;;;;7.35;3.33;;;23.60;99.90;;;;;;4951535;29;20055;-90
2022/05/16 11:10:52;;;;;;;5.20;3.28;;;24.30;99.90;;;;;;4946211;28;20032;-91
2022/05/16 11:13:40;;;;;;;9.13;3.10;;;24.70;95.30;;;;;;4946975;28;20036;-90
2022/05/16 11:16:21;;;;;;;4.72;3.30;;;25.00;94.80;;;;;;4954143;28;20039;-90
2022/05/16 11:18:56;;;;;;;7.03;3.55;;;25.20;94.10;;;;;;4953975;28;20054;-91
2022/05/16 11:21:51;;;;;;;4.22;2.70;;;25.30;84.90;;;;;;4954940;28;20450;-90
2022/05/16 11:24:42;;;;;;;4.65;2.90;;;25.60;86.20;;;;;;4955532;28;20047;-90
2022/05/16 11:27:30;;;;;;;10.90;2.92;;;25.70;83.00;;;;;;4936529;29;20407;-90
2022/05/16 11:30:02;;;;;;;4.88;2.58;;;25.80;78.30;;;;;;4936840;29;20032;-90
2022/05/16 11:32:56;;;;;;;5.47;2.97;;;25.90;79.50;;;;;;4956653;28;20028;-91
2022/05/16 11:35:27;;;;;;;4.60;2.90;;;26.00;78.00;;;;;;4966141;28;20059;-91
2022/05/16 11:38:14;;;;;;;4.43;2.83;;;26.00;76.90;;;;;;4960505;28;20067;-90
2022/05/16 11:41:27;;;;;;;8.82;3.38;;;26.00;83.80;;;;;;4954501;28;20042;-89
2022/05/16 11:44:15;;;;;;;10.55;3.10;;;25.90;89.40;;;;;;4920665;29;20055;-90
2022/05/16 11:47:09;;;;;;;5.57;3.83;;;25.70;90.90;;;;;;4954560;28;20038;-89
2022/05/16 11:49:59;;;;;;;8.63;3.95;;;25.70;89.50;;;;;;4949154;28;20024;-90
2022/05/16 11:52:48;;;;;;;5.60;3.95;;;25.50;89.50;;;;;;4952127;28;20024;-88
2022/05/16 12:01:07;;;;;;;8.35;3.53;;;24.50;91.80;;;;;;4959530;28;20058;-90
2022/05/16 12:04:13;;;;;;;11.57;3.60;;;24.50;93.40;;;;;;4957878;28;20030;-90
2022/05/16 12:07:12;;;;;;;7.32;3.45;;;24.50;90.70;;;;;;4959291;28;20019;-90
2022/05/16 12:09:52;;;;;;;6.88;3.58;;;24.60;90.80;;;;;;4959470;28;20503;-90
2022/05/16 12:12:40;;;;;;;5.03;3.30;;;24.70;92.90;;;;;;4959847;29;20062;-90
2022/05/16 12:15:24;;;;;;;7.50;3.30;;;24.70;92.80;;;;;;4925833;29;20036;-91
2022/05/16 12:17:50;;;;;;;4.28;3.35;;;24.40;94.00;;;;;;4947682;29;20504;-91
2022/05/16 12:20:16;;;;;;;5.25;3.88;;;24.20;93.50;;;;;;4958926;28;20059;-91
2022/05/16 12:22:46;;;;;;;5.00;4.22;;;23.90;94.80;;;;;;4958362;28;20031;-90
2022/05/16 12:25:32;;;;;;;6.10;4.20;;;23.80;96.00;;;;;;4953643;28;20083;-89
2022/05/16 12:28:13;;;;;;;6.43;4.28;;;23.60;99.90;;;;;;4949019;29;20079;-91
2022/05/16 12:30:38;;;;;;;4.40;3.95;;;23.60;99.90;;;;;;4958901;28;20042;-90
2022/05/16 12:33:23;;;;;;;4.65;3.47;;;23.70;99.90;;;;;;4972759;28;20435;-90
2022/05/16 12:35:51;;;;;;;5.97;4.30;;;23.90;99.30;;;;;;4946809;28;20031;-91
2022/05/16 12:38:18;;;;;;;4.95;4.03;;;24.30;98.40;;;;;;4957487;28;20037;-89
2022/05/16 12:41:08;;;;;;;5.85;3.63;;;24.30;97.20;;;;;;4962370;28;20031;-89
2022/05/16 12:44:15;;;;;;;9.00;3.93;;;24.40;94.00;;;;;;4951795;28;20039;-89
2022/05/16 12:47:14;;;;;;;5.43;3.60;;;24.50;94.50;;;;;;4906623;29;20096;-90
2022/05/16 12:50:01;;;;;;;4.15;3.85;;;24.60;94.40;;;;;;4898480;29;20028;-90
2022/05/16 12:53:05;;;;;;;7.35;4.40;;;24.70;92.80;;;;;;4931389;29;20020;-89
2022/05/16 12:55:41;;;;;;;3.88;3.42;;;25.00;93.20;;;;;;4930104;29;20059;-89
2022/05/16 12:58:12;;;;;;;3.72;3.42;;;25.30;90.20;;;;;;4961885;28;20055;-90
2022/05/16 13:01:05;;;;;;;7.32;3.90;;;25.50;91.10;;;;;;4946354;28;20106;-90
2022/05/16 13:03:57;;;;;;;4.88;3.92;;;25.70;89.40;;;;;;4956213;28;20035;-89
2022/05/16 13:06:52;;;;;;;7.85;4.10;;;25.80;85.40;;;;;;4950163;28;20027;-89
2022/05/16 13:09:43;;;;;;;4.45;3.78;;;26.10;87.30;;;;;;4950391;29;20504;-89
2022/05/16 13:12:15;;;;;;;7.47;3.63;;;26.30;75.80;;;;;;4939533;29;20051;-89
2022/05/16 13:14:46;;;;;;;6.00;4.88;;;26.50;81.70;;;;;;4936065;28;20063;-90
2022/05/16 13:17:39;;;;;;;6.28;4.43;;;26.70;77.80;;;;;;4933503;28;20563;-90
2022/05/16 13:20:09;;;;;;;9.90;4.68;;;26.60;77.50;;;;;;4926641;29;20038;-90
2022/05/16 13:22:37;;;;;;;6.28;3.95;;;26.90;77.60;;;;;;4930558;29;20032;-90
2022/05/16 13:25:04;;;;;;;7.15;4.28;;;27.20;78.00;;;;;;4955147;28;20106;-90
2022/05/16 13:30:20;;;;;;;7.47;4.28;;;28.10;70.20;;;;;;4938730;29;20036;-90
2022/05/16 13:32:46;;;;;;;7.85;3.83;;;28.40;72.80;;;;;;4931518;29;20127;-90
2022/05/16 13:35:37;;;;;;;5.45;3.83;;;28.60;72.40;;;;;;4948703;29;20032;-89
2022/05/16 13:38:07;;;;;;;3.75;3.45;;;28.50;72.20;;;;;;4954402;28;20093;-90
2022/05/16 13:40:38;;;;;;;5.85;4.00;;;28.30;70.60;;;;;;4969770;28;20030;-89
2022/05/16 13:43:16;;;;;;;9.00;4.05;;;28.10;69.80;;;;;;4953496;29;20042;-90
2022/05/16 13:45:42;;;;;;;5.78;4.30;;;28.00;69.00;;;;;;4953944;28;20031;-88